createdAt,value
2023-02-28T00:01:09.689Z,0.80
2023-02-28T00:05:13.461Z,0.70
2023-02-28T00:09:16.222Z,0.70
2023-02-28T00:13:19.067Z,0.70
2023-02-28T00:17:23.231Z,0.60
2023-02-28T00:21:26.039Z,0.60
2023-02-28T00:25:29.945Z,0.60
2023-02-28T00:29:32.738Z,0.60
2023-02-28T00:33:36.924Z,0.50
2023-02-28T00:37:39.809Z,0.50
2023-02-28T00:41:42.659Z,0.50
2023-02-28T00:45:45.573Z,0.50
2023-02-28T00:49:49.720Z,0.40
2023-02-28T00:53:52.578Z,0.40
2023-02-28T00:57:55.444Z,0.30
2023-02-28T01:01:59.296Z,0.30
2023-02-28T01:06:03.443Z,0.20
2023-02-28T01:10:06.722Z,0.20
2023-02-28T01:14:10.733Z,0.20
2023-02-28T01:18:13.531Z,0.10
2023-02-28T01:22:17.677Z,0.10
2023-02-28T01:26:21.377Z,0.00
2023-02-28T01:30:24.186Z,0.00
2023-02-28T01:34:27.066Z,-0.10
2023-02-28T01:38:31.480Z,-0.10
2023-02-28T01:42:34.286Z,-0.10
2023-02-28T01:46:37.632Z,-0.20
2023-02-28T01:50:41.821Z,-0.20
2023-02-28T01:54:48.202Z,-0.20
2023-02-28T01:58:51.180Z,-0.30
2023-02-28T02:02:56.045Z,-0.30
2023-02-28T02:07:00.586Z,-0.40
2023-02-28T02:11:05.074Z,-0.50
2023-02-28T02:15:11.609Z,-0.50
2023-02-28T02:19:24.533Z,-0.60
2023-02-28T02:23:35.094Z,-0.60
2023-02-28T02:28:05.058Z,-0.70
2023-02-28T02:32:16.318Z,-0.70
2023-02-28T02:36:22.955Z,-0.80
2023-02-28T02:40:29.399Z,-0.80
2023-02-28T02:44:36.564Z,-0.80
2023-02-28T02:48:40.788Z,-0.80
2023-02-28T02:52:47.476Z,-0.80
2023-02-28T02:56:50.685Z,-0.80
2023-02-28T03:00:54.640Z,-0.80
2023-02-28T03:05:01.927Z,-0.80
2023-02-28T03:09:06.577Z,-0.80
2023-02-28T03:13:38.434Z,-0.90
2023-02-28T03:17:50.796Z,-0.90
2023-02-28T03:21:57.795Z,-0.90
2023-02-28T03:26:04.278Z,-0.90
2023-02-28T03:30:10.372Z,-1.00
2023-02-28T03:34:16.201Z,-1.10
2023-02-28T03:38:22.843Z,-1.10
2023-02-28T03:42:29.677Z,-1.20
2023-02-28T03:46:34.818Z,-1.30
2023-02-28T03:50:39.145Z,-1.30
2023-02-28T03:54:43.896Z,-1.40
2023-02-28T03:58:50.135Z,-1.50
2023-02-28T04:02:53.705Z,-1.50
2023-02-28T04:07:03.144Z,-1.60
2023-02-28T04:11:08.844Z,-1.60
2023-02-28T04:15:13.133Z,-1.70
2023-02-28T04:19:16.675Z,-1.70
2023-02-28T04:23:19.724Z,-1.80
2023-02-28T04:27:22.760Z,-1.80
2023-02-28T04:31:27.087Z,-1.80
2023-02-28T04:35:30.042Z,-1.90
2023-02-28T04:39:36.860Z,-1.90
2023-02-28T04:43:39.674Z,-1.90
2023-02-28T04:47:43.815Z,-1.90
2023-02-28T04:51:46.645Z,-2.00
2023-02-28T04:55:49.440Z,-2.00
2023-02-28T04:59:54.274Z,-2.00
2023-02-28T05:03:59.340Z,-2.10
2023-02-28T05:08:02.150Z,-2.10
2023-02-28T05:12:04.976Z,-2.10
2023-02-28T05:16:08.213Z,-2.20
2023-02-28T05:20:15.721Z,-2.20
2023-02-28T05:24:23.596Z,-2.20
2023-02-28T05:28:26.441Z,-2.30
2023-02-28T05:32:29.351Z,-2.30
2023-02-28T05:36:33.586Z,-2.30
2023-02-28T05:40:36.433Z,-2.30
2023-02-28T05:44:39.238Z,-2.40
2023-02-28T05:48:42.923Z,-2.40
2023-02-28T05:52:50.801Z,-2.40
2023-02-28T05:56:53.626Z,-2.40
2023-02-28T06:00:56.557Z,-2.40
2023-02-28T06:04:59.372Z,-2.50
2023-02-28T06:09:03.907Z,-2.50
2023-02-28T06:13:07.028Z,-2.60
2023-02-28T06:17:11.039Z,-2.60
2023-02-28T06:21:14.109Z,-2.60
2023-02-28T06:25:18.454Z,-2.60
2023-02-28T06:29:21.269Z,-2.70
2023-02-28T06:33:24.060Z,-2.60
2023-02-28T06:37:29.779Z,-2.60
2023-02-28T06:41:53.750Z,-2.60
2023-02-28T06:45:58.269Z,-2.60
2023-02-28T06:50:02.529Z,-2.60
2023-02-28T06:54:05.812Z,-2.50
2023-02-28T06:58:19.072Z,-2.30
2023-02-28T07:02:22.102Z,-2.20
2023-02-28T07:06:24.980Z,-2.00
2023-02-28T07:10:27.875Z,-1.80
2023-02-28T07:14:32.010Z,-1.50
2023-02-28T07:18:44.968Z,-1.00
2023-02-28T07:22:48.805Z,-0.40
2023-02-28T07:26:51.590Z,0.40
2023-02-28T07:31:07.028Z,1.30
2023-02-28T07:35:10.278Z,2.10
2023-02-28T07:39:13.193Z,3.00
2023-02-28T07:43:16.002Z,3.60
2023-02-28T07:47:20.361Z,3.90
2023-02-28T07:51:24.303Z,3.90
2023-02-28T07:55:27.453Z,3.70
2023-02-28T07:59:32.251Z,3.40
2023-02-28T08:03:36.663Z,3.20
2023-02-28T08:07:39.457Z,3.40
2023-02-28T08:11:42.279Z,3.90
2023-02-28T08:15:46.323Z,4.70
2023-02-28T08:19:50.513Z,5.50
2023-02-28T08:23:53.603Z,6.40
2023-02-28T08:28:06.894Z,7.20
2023-02-28T08:32:23.632Z,7.90
2023-02-28T08:36:33.011Z,8.60
2023-02-28T08:40:35.836Z,9.20
2023-02-28T08:44:38.711Z,9.80
2023-02-28T08:48:42.569Z,10.50
2023-02-28T08:52:46.742Z,11.00
2023-02-28T08:56:49.609Z,11.40
2023-02-28T09:00:52.512Z,11.70
2023-02-28T09:04:56.224Z,12.10
2023-02-28T09:09:02.125Z,12.60
2023-02-28T09:13:04.963Z,13.10
2023-02-28T09:17:07.749Z,13.50
2023-02-28T09:21:12.505Z,14.00
2023-02-28T09:25:16.849Z,14.40
2023-02-28T09:29:19.646Z,14.80
2023-02-28T09:33:22.850Z,15.10
2023-02-28T09:37:27.526Z,15.40
2023-02-28T09:41:36.436Z,15.80
2023-02-28T09:45:42.558Z,16.10
2023-02-28T09:49:48.003Z,16.40
2023-02-28T09:53:56.723Z,16.70
2023-02-28T09:58:05.452Z,16.90
2023-02-28T10:02:15.024Z,17.30
2023-02-28T10:06:21.722Z,17.60
2023-02-28T11:55:56.951Z,16.00
2023-02-28T12:00:03.557Z,15.70
2023-02-28T12:04:13.745Z,15.00
2023-02-28T12:08:25.125Z,14.40
2023-02-28T12:12:36.532Z,14.30
2023-02-28T12:16:54.278Z,14.50
2023-02-28T12:21:01.270Z,14.80
2023-02-28T12:25:20.080Z,15.10
2023-02-28T12:29:26.102Z,15.20
2023-02-28T12:33:31.422Z,15.50
2023-02-28T12:37:39.370Z,15.90
2023-02-28T12:41:43.657Z,16.50
2023-02-28T12:45:51.157Z,17.00
2023-02-28T12:49:55.814Z,17.60
2023-02-28T12:54:07.015Z,18.00
2023-02-28T12:58:13.172Z,18.20
2023-02-28T13:02:36.880Z,18.50
2023-02-28T13:06:55.021Z,18.60
2023-02-28T13:10:57.823Z,18.20
2023-02-28T13:15:05.990Z,17.40
2023-02-28T13:19:12.910Z,16.60
2023-02-28T13:23:30.619Z,15.70
2023-02-28T13:27:40.428Z,14.90
2023-02-28T13:32:01.803Z,14.20
2023-02-28T13:36:25.569Z,13.50
2023-02-28T13:40:31.903Z,12.90
2023-02-28T13:44:56.036Z,12.40
2023-02-28T13:48:58.885Z,12.00
2023-02-28T13:53:17.286Z,11.70
2023-02-28T13:57:25.558Z,11.40
2023-02-28T14:01:35.007Z,11.10
2023-02-28T14:05:38.822Z,10.80
2023-02-28T14:09:43.177Z,10.50
2023-02-28T14:13:48.005Z,10.40
2023-02-28T14:17:54.362Z,10.20
2023-02-28T14:22:06.422Z,10.00
2023-02-28T14:26:15.020Z,9.80
2023-02-28T14:30:28.241Z,9.60
2023-02-28T14:34:43.364Z,9.50
2023-02-28T14:38:49.244Z,9.40
2023-02-28T14:42:57.217Z,9.30
2023-02-28T14:47:04.909Z,9.20
2023-02-28T14:51:09.122Z,9.20
2023-02-28T14:55:15.037Z,9.20
2023-02-28T14:59:28.909Z,9.30
2023-02-28T15:03:33.169Z,9.60
2023-02-28T15:07:37.530Z,9.90
2023-02-28T15:11:40.992Z,10.30
2023-02-28T15:16:01.324Z,10.70
2023-02-28T15:20:05.596Z,11.20
2023-02-28T15:24:12.929Z,11.80
2023-02-28T15:28:20.626Z,12.10
2023-02-28T15:32:26.652Z,12.40
2023-02-28T15:36:32.858Z,12.60
2023-02-28T15:40:39.770Z,12.90
2023-02-28T15:44:42.561Z,13.10
2023-02-28T15:48:46.587Z,13.20
2023-02-28T15:52:49.428Z,13.40
2023-02-28T15:56:55.847Z,13.50
2023-02-28T16:01:03.145Z,13.50
2023-02-28T16:05:21.652Z,13.50
2023-02-28T16:09:24.462Z,13.50
2023-02-28T16:13:28.871Z,13.40
2023-02-28T16:17:33.527Z,13.30
2023-02-28T16:21:36.339Z,13.10
2023-02-28T16:25:40.259Z,12.80
2023-02-28T16:29:45.964Z,12.40
2023-02-28T16:33:49.076Z,12.00
2023-02-28T16:37:52.667Z,11.60
2023-02-28T16:41:56.640Z,11.20
2023-02-28T16:46:02.346Z,10.80
2023-02-28T16:50:07.863Z,10.40
2023-02-28T16:54:10.682Z,10.10
2023-02-28T16:58:16.289Z,9.80
2023-02-28T17:02:21.483Z,9.40
2023-02-28T17:06:25.398Z,9.10
2023-02-28T17:10:28.444Z,8.80
2023-02-28T17:14:31.236Z,8.50
2023-02-28T17:18:35.786Z,8.10
2023-02-28T17:22:38.589Z,7.90
2023-02-28T17:26:41.785Z,7.60
2023-02-28T17:30:48.116Z,7.30
2023-02-28T17:34:52.379Z,7.10
2023-02-28T17:38:56.184Z,6.90
2023-02-28T17:43:00.029Z,6.70
2023-02-28T17:47:02.898Z,6.50
2023-02-28T17:51:07.105Z,6.30
2023-02-28T17:55:10.926Z,6.10
2023-02-28T17:59:19.868Z,5.90
2023-02-28T18:03:22.913Z,5.70
2023-02-28T18:07:27.672Z,5.50
2023-02-28T18:11:42.249Z,5.30
2023-02-28T18:15:45.165Z,5.10
2023-02-28T18:19:48.172Z,4.90
2023-02-28T18:23:53.222Z,4.80
2023-02-28T18:27:59.268Z,4.60
2023-02-28T18:32:03.842Z,4.40
2023-02-28T18:36:07.567Z,4.20
2023-02-28T18:40:12.981Z,4.10
2023-02-28T18:44:20.971Z,4.00
2023-02-28T18:48:24.342Z,3.80
2023-02-28T18:52:27.182Z,3.70
2023-02-28T18:56:35.633Z,3.60
2023-02-28T19:00:38.818Z,3.50
2023-02-28T19:04:42.572Z,3.40
2023-02-28T19:08:45.737Z,3.30
2023-02-28T19:12:49.942Z,3.20
2023-02-28T19:16:52.885Z,3.10
2023-02-28T19:20:55.942Z,3.10
2023-02-28T19:25:00.245Z,3.00
2023-02-28T19:29:05.629Z,2.90
2023-02-28T19:33:09.024Z,2.80
2023-02-28T19:37:12.722Z,2.80
2023-02-28T19:41:17.941Z,2.70
2023-02-28T19:45:22.465Z,2.60
2023-02-28T19:49:26.074Z,2.50
2023-02-28T19:53:30.997Z,2.40
2023-02-28T19:57:34.833Z,2.30
2023-02-28T20:01:39.112Z,2.30
2023-02-28T20:05:41.970Z,2.20
2023-02-28T20:09:45.600Z,2.10
2023-02-28T20:13:48.412Z,2.10
2023-02-28T20:17:52.583Z,2.00
2023-02-28T20:21:55.495Z,1.90
2023-02-28T20:25:59.660Z,1.80
2023-02-28T20:30:02.596Z,1.80
2023-02-28T20:34:06.839Z,1.70
2023-02-28T20:38:10.084Z,1.70
2023-02-28T20:42:12.919Z,1.60
2023-02-28T20:46:15.852Z,1.50
2023-02-28T20:50:20.433Z,1.40
2023-02-28T20:54:23.268Z,1.30
2023-02-28T20:58:26.878Z,1.20
2023-02-28T21:02:30.053Z,1.20
2023-02-28T21:06:35.721Z,1.10
2023-02-28T21:10:38.546Z,1.00
2023-02-28T21:14:45.185Z,0.90
2023-02-28T21:19:03.998Z,0.90
2023-02-28T21:23:08.250Z,0.80
2023-02-28T21:27:11.085Z,0.80
2023-02-28T21:31:16.422Z,0.70
2023-02-28T21:35:19.424Z,0.70
2023-02-28T21:39:28.851Z,0.70
2023-02-28T21:43:31.684Z,0.60
2023-02-28T21:47:41.745Z,0.60
2023-02-28T21:51:44.691Z,0.50
2023-02-28T21:55:50.890Z,0.50
2023-02-28T21:59:53.829Z,0.40
2023-02-28T22:03:57.234Z,0.30
2023-02-28T22:08:02.113Z,0.20
2023-02-28T22:12:08.453Z,0.20
2023-02-28T22:16:12.949Z,0.10
2023-02-28T22:20:19.902Z,0.10
2023-02-28T22:24:24.530Z,0.10
2023-02-28T22:28:30.437Z,0.10
2023-02-28T22:32:33.210Z,0.00
2023-02-28T22:36:36.998Z,-0.10
2023-02-28T22:40:47.214Z,-0.10
2023-02-28T22:44:52.447Z,-0.20
2023-02-28T22:48:55.634Z,-0.30
2023-02-28T22:52:58.944Z,-0.30
2023-02-28T22:57:03.033Z,-0.40
2023-02-28T23:01:08.070Z,-0.40
2023-02-28T23:05:13.208Z,-0.50
2023-02-28T23:09:18.875Z,-0.50
2023-02-28T23:13:22.496Z,-0.60
2023-02-28T23:17:26.805Z,-0.60
2023-02-28T23:21:31.702Z,-0.60
2023-02-28T23:25:34.591Z,-0.70
2023-02-28T23:29:37.712Z,-0.70
2023-02-28T23:33:41.922Z,-0.80
2023-02-28T23:37:44.841Z,-0.80
2023-02-28T23:41:47.836Z,-0.90
2023-02-28T23:45:55.632Z,-0.90
2023-02-28T23:49:59.832Z,-1.00
2023-02-28T23:54:05.792Z,-1.00
2023-02-28T23:58:08.569Z,-1.00
